Time;durP1;ratioP1;P1;durP2;ratioP2;P2;SDS_P1;SDS_P2;PMS_P1;PMS_P2;Temp;Humidity;BMP_temperature;BMP_pressure;BME280_temperature;BME280_humidity;BME280_pressure;Samples;Min_cycle;Max_cycle;Signal;HPM_P1;HPM_P2
2021/11/10 00:01:38;;;;;;;3.63;2.28;;;2.60;62.50;;;;;;5037442;28;20068;-39
2021/11/10 00:04:05;;;;;;;3.42;2.10;;;2.50;62.50;;;;;;5037922;28;20450;-38
2021/11/10 00:06:31;;;;;;;4.18;2.33;;;2.50;62.60;;;;;;5037521;28;20052;-37
2021/11/10 00:08:57;;;;;;;3.63;2.17;;;2.50;62.80;;;;;;5037437;28;20030;-37
2021/11/10 00:11:23;;;;;;;3.03;2.15;;;2.40;62.70;;;;;;5037287;28;20120;-36
2021/11/10 00:13:49;;;;;;;4.80;2.20;;;2.40;62.80;;;;;;5037608;28;20137;-38
2021/11/10 00:16:14;;;;;;;2.47;1.92;;;2.40;62.90;;;;;;5037173;28;20041;-37
2021/11/10 00:18:40;;;;;;;4.68;2.13;;;2.30;63.60;;;;;;5037668;28;20030;-36
2021/11/10 06:41:54;;;;;;;6.82;3.90;;;1.60;69.60;;;;;;5022439;28;20072;-36
2021/11/10 06:44:19;;;;;;;10.07;4.88;;;1.70;69.70;;;;;;5035148;28;20287;-37
2021/11/10 06:46:45;;;;;;;9.70;4.70;;;1.70;69.60;;;;;;5034534;28;20060;-37
2021/11/10 06:49:11;;;;;;;8.77;4.55;;;1.80;69.60;;;;;;5035286;28;20026;-37
2021/11/10 06:51:38;;;;;;;7.28;4.22;;;1.80;69.40;;;;;;5035622;28;20124;-38
2021/11/10 06:54:04;;;;;;;8.05;4.35;;;1.80;69.40;;;;;;5038942;28;20406;-38
2021/11/10 06:56:29;;;;;;;43.60;6.93;;;1.80;69.20;;;;;;5038083;28;20113;-37
2021/11/10 06:58:55;;;;;;;9.23;4.15;;;1.90;69.20;;;;;;5038149;28;20041;-37
2021/11/10 07:01:21;;;;;;;7.63;4.45;;;1.90;69.10;;;;;;5038154;28;20029;-38
2021/11/10 07:03:47;;;;;;;7.10;3.75;;;1.90;68.90;;;;;;5039035;28;20032;-37
2021/11/10 07:06:12;;;;;;;7.13;4.13;;;2.00;68.90;;;;;;5038522;28;20374;-37
2021/11/10 07:08:38;;;;;;;7.50;4.03;;;2.00;68.80;;;;;;5038366;28;20038;-38
2021/11/10 07:11:04;;;;;;;8.70;3.75;;;2.10;68.80;;;;;;5038445;28;20052;-38
2021/11/10 07:13:29;;;;;;;6.07;3.80;;;2.10;68.70;;;;;;5038121;28;20108;-38
2021/11/10 07:15:55;;;;;;;6.78;3.83;;;2.10;68.70;;;;;;5038293;28;20041;-38
2021/11/10 07:18:21;;;;;;;9.43;4.53;;;2.10;68.70;;;;;;5037988;28;20025;-38
2021/11/10 07:20:47;;;;;;;7.07;3.83;;;2.20;68.70;;;;;;5037922;28;20041;-37
2021/11/10 07:23:12;;;;;;;25.52;5.32;;;2.20;68.50;;;;;;5038095;28;20037;-37
2021/11/10 07:25:38;;;;;;;7.30;3.70;;;2.20;68.40;;;;;;5038855;28;20290;-38
2021/11/10 07:28:04;;;;;;;5.28;3.53;;;2.20;68.30;;;;;;5057403;28;20068;-39
2021/11/10 07:30:30;;;;;;;6.80;4.15;;;2.30;68.30;;;;;;5057783;28;20041;-39
2021/11/10 07:32:55;;;;;;;7.68;3.83;;;2.30;68.20;;;;;;5057354;28;20108;-38
2021/11/10 07:35:21;;;;;;;5.82;3.40;;;2.30;68.60;;;;;;5057660;28;20075;-37
2021/11/10 07:37:48;;;;;;;9.40;4.20;;;2.30;67.90;;;;;;5057428;28;20032;-38
2021/11/10 07:40:15;;;;;;;8.82;3.72;;;2.40;68.00;;;;;;5057795;28;20319;-39
2021/11/10 07:42:43;;;;;;;7.72;4.20;;;2.50;68.00;;;;;;5057219;28;20365;-39
2021/11/10 07:45:12;;;;;;;6.65;4.10;;;2.50;67.70;;;;;;5058073;28;20041;-40
2021/11/10 07:47:43;;;;;;;6.70;3.90;;;2.50;67.50;;;;;;5057459;28;20062;-38
2021/11/10 07:50:11;;;;;;;;;;;2.60;67.60;;;;;;5056892;28;20059;-37
2021/11/10 07:52:37;;;;;;;13.13;4.05;;;2.60;67.60;;;;;;5057422;28;19909;-38
2021/11/10 07:55:04;;;;;;;8.77;3.88;;;2.60;67.30;;;;;;5057373;28;20028;-38
2021/11/10 07:57:29;;;;;;;10.25;4.28;;;2.60;67.00;;;;;;5057287;28;20112;-38
2021/11/10 07:59:55;;;;;;;16.88;5.22;;;2.70;66.80;;;;;;5056823;28;20378;-39
2021/11/10 08:02:21;;;;;;;7.50;3.72;;;2.70;66.70;;;;;;5056397;28;20036;-38
2021/11/10 08:04:47;;;;;;;31.52;5.80;;;2.70;66.60;;;;;;5057434;28;20029;-39
2021/11/10 08:07:13;;;;;;;32.83;6.72;;;2.80;66.10;;;;;;5055793;28;20137;-39
2021/11/10 08:09:39;;;;;;;6.50;3.70;;;2.80;66.00;;;;;;5057199;28;20036;-38
2021/11/10 08:12:05;;;;;;;6.82;4.28;;;2.90;65.70;;;;;;5056950;28;20029;-38
2021/11/10 08:14:30;;;;;;;7.00;3.90;;;2.90;65.50;;;;;;5057457;28;20025;-39
2021/11/10 08:16:56;;;;;;;12.45;3.90;;;3.00;65.50;;;;;;5056529;28;20026;-37
2021/11/10 08:19:22;;;;;;;9.75;5.50;;;3.10;65.20;;;;;;5057245;28;20021;-38
2021/11/10 08:21:48;;;;;;;13.13;4.68;;;3.10;65.10;;;;;;5056263;28;20091;-38
2021/11/10 08:24:13;;;;;;;9.65;4.85;;;3.20;64.90;;;;;;5057146;28;20413;-38
2021/11/10 08:26:39;;;;;;;7.70;3.70;;;3.30;64.60;;;;;;5056361;28;20028;-37
2021/11/10 08:29:05;;;;;;;22.55;5.95;;;3.30;64.50;;;;;;5057060;28;20033;-38
2021/11/10 08:31:30;;;;;;;7.13;4.65;;;3.40;64.40;;;;;;5056164;28;20039;-38
2021/11/10 08:33:57;;;;;;;4.97;2.90;;;3.50;64.20;;;;;;5056798;28;20040;-37
2021/11/10 08:36:24;;;;;;;5.13;3.08;;;3.50;63.60;;;;;;5055218;28;20372;-37
2021/11/10 08:38:49;;;;;;;6.80;3.40;;;3.60;63.40;;;;;;5056900;28;20570;-38
2021/11/10 08:41:16;;;;;;;6.18;3.60;;;3.60;62.90;;;;;;5055914;28;20115;-38
2021/11/10 08:43:41;;;;;;;7.20;3.47;;;3.60;62.70;;;;;;5056794;28;20037;-39
2021/11/10 08:46:08;;;;;;;9.25;3.90;;;3.70;62.90;;;;;;5056055;28;20041;-37
2021/11/10 08:48:33;;;;;;;4.70;3.20;;;3.70;63.00;;;;;;5056055;28;20307;-39
2021/11/10 08:50:59;;;;;;;5.10;2.90;;;3.80;63.10;;;;;;5055342;28;20040;-39
2021/11/10 08:53:25;;;;;;;4.88;2.58;;;3.90;62.70;;;;;;5056357;28;20025;-39
2021/11/10 08:55:56;;;;;;;3.17;2.17;;;3.90;62.40;;;;;;5056081;28;20033;-39
2021/11/10 08:58:26;;;;;;;3.78;2.53;;;3.90;62.00;;;;;;5056152;28;20112;-39
2021/11/10 09:00:53;;;;;;;5.38;2.58;;;3.90;61.60;;;;;;5056416;28;20025;-39
2021/11/10 09:03:23;;;;;;;6.22;2.58;;;3.90;61.40;;;;;;5055861;28;20356;-38
2021/11/10 09:05:50;;;;;;;3.92;2.38;;;3.90;61.50;;;;;;5055857;28;20051;-39
2021/11/10 09:08:17;;;;;;;3.97;2.25;;;3.90;61.10;;;;;;5055973;28;20291;-39
2021/11/10 09:10:43;;;;;;;5.18;2.42;;;3.90;61.00;;;;;;5055657;28;20333;-39
2021/11/10 09:13:10;;;;;;;4.70;2.63;;;3.90;60.90;;;;;;5055608;28;20432;-39
2021/11/10 09:15:37;;;;;;;12.60;3.08;;;3.90;61.00;;;;;;5055028;28;20021;-38
2021/11/10 09:18:06;;;;;;;6.97;2.67;;;3.90;61.20;;;;;;5055883;28;20063;-39
2021/11/10 09:20:33;;;;;;;7.90;3.17;;;4.00;61.20;;;;;;5055619;28;20041;-38
2021/11/10 09:23:02;;;;;;;3.45;2.53;;;4.00;60.90;;;;;;5055077;28;20037;-38
2021/11/10 09:25:29;;;;;;;12.02;3.28;;;4.10;60.90;;;;;;5055520;28;20037;-38
2021/11/10 09:27:56;;;;;;;5.55;3.13;;;4.10;61.00;;;;;;5055383;28;20044;-38
2021/11/10 09:30:23;;;;;;;5.15;2.90;;;4.20;60.40;;;;;;5055904;28;20037;-38
2021/11/10 09:32:51;;;;;;;6.22;2.83;;;4.20;60.20;;;;;;5055341;28;20041;-38
2021/11/10 09:35:18;;;;;;;3.65;2.38;;;4.20;60.00;;;;;;5055761;28;20040;-38
2021/11/10 09:37:44;;;;;;;6.03;3.65;;;4.30;60.10;;;;;;5055693;28;20393;-38
2021/11/10 09:40:13;;;;;;;7.97;2.92;;;4.40;60.30;;;;;;5055712;28;20095;-38
2021/11/10 09:42:41;;;;;;;6.35;2.85;;;4.50;60.20;;;;;;5055351;28;20057;-38
2021/11/10 09:45:09;;;;;;;4.65;2.35;;;4.50;60.00;;;;;;5055308;28;20056;-38
2021/11/10 09:47:38;;;;;;;5.90;2.75;;;4.60;59.80;;;;;;5055128;28;20036;-39
2021/11/10 09:50:06;;;;;;;6.20;2.60;;;4.70;59.00;;;;;;5055414;28;20037;-38
2021/11/10 09:52:31;;;;;;;6.45;2.67;;;4.80;58.50;;;;;;5055169;28;20037;-38
2021/11/10 09:54:58;;;;;;;4.82;2.72;;;4.80;58.10;;;;;;5055754;28;20040;-38
2021/11/10 09:57:25;;;;;;;5.38;2.92;;;4.80;57.80;;;;;;5054769;28;20029;-38
2021/11/10 09:59:50;;;;;;;4.40;2.38;;;4.90;57.70;;;;;;5055483;28;20531;-38
2021/11/10 10:02:18;;;;;;;4.90;2.33;;;4.90;57.60;;;;;;5054673;28;20084;-38
2021/11/10 10:04:44;;;;;;;4.22;2.65;;;5.00;57.50;;;;;;5055298;28;20120;-37
2021/11/10 10:07:12;;;;;;;3.08;1.98;;;5.10;57.50;;;;;;5054652;28;20475;-37
2021/11/10 10:09:38;;;;;;;4.30;2.60;;;5.10;57.20;;;;;;5055199;28;20374;-39
2021/11/10 10:12:05;;;;;;;4.00;2.47;;;5.20;56.90;;;;;;5054730;28;20112;-38
2021/11/10 10:14:32;;;;;;;5.38;2.90;;;5.20;56.40;;;;;;5055439;28;20402;-39
2021/11/10 10:17:01;;;;;;;4.47;2.58;;;5.30;56.20;;;;;;5054839;28;20372;-39
2021/11/10 10:19:39;;;;;;;16.00;5.30;;;5.40;56.20;;;;;;5055460;28;20033;-39
2021/11/10 10:22:05;;;;;;;4.63;2.40;;;5.40;56.20;;;;;;5054894;28;20033;-36
2021/11/10 10:24:52;;;;;;;5.32;2.83;;;5.50;56.20;;;;;;5055481;28;20066;-38
2021/11/10 10:27:30;;;;;;;5.88;2.90;;;5.60;55.90;;;;;;5059114;28;20104;-39
2021/11/10 10:30:26;;;;;;;7.00;3.40;;;5.60;55.80;;;;;;5059050;28;20306;-39
2021/11/10 10:32:57;;;;;;;5.13;2.58;;;5.60;55.10;;;;;;5058738;28;20029;-38
2021/11/10 10:35:36;;;;;;;;;;;5.70;55.40;;;;;;5060026;28;20033;-38
2021/11/10 10:38:05;;;;;;;3.38;2.30;;;5.70;55.90;;;;;;5058690;28;19972;-38
2021/11/10 10:40:32;;;;;;;10.27;5.45;;;5.70;55.90;;;;;;5059086;28;20087;-38
2021/11/10 10:42:59;;;;;;;7.72;3.10;;;5.80;55.80;;;;;;5058509;28;20057;-37
2021/11/10 10:45:32;;;;;;;4.63;2.50;;;5.90;55.80;;;;;;5057499;28;20036;-37
2021/11/10 10:48:00;;;;;;;5.95;2.92;;;6.00;55.50;;;;;;5057816;28;20041;-37
2021/11/10 10:50:31;;;;;;;5.05;2.97;;;6.10;55.10;;;;;;5059076;28;20079;-38
2021/11/10 10:52:58;;;;;;;2.95;2.22;;;6.30;54.70;;;;;;5058773;28;20029;-38
2021/11/10 10:55:38;;;;;;;3.15;2.00;;;6.30;54.10;;;;;;5058973;28;20021;-37
2021/11/10 10:58:08;;;;;;;12.90;5.38;;;6.40;53.40;;;;;;5058260;28;20088;-38
2021/11/10 11:00:37;;;;;;;3.35;1.88;;;6.50;53.50;;;;;;5058121;28;20038;-37
2021/11/10 11:03:15;;;;;;;3.90;1.95;;;6.50;53.20;;;;;;5058232;28;20395;-38
2021/11/10 11:05:45;;;;;;;7.57;2.80;;;6.60;52.70;;;;;;5058125;28;20419;-39
2021/11/10 11:08:38;;;;;;;5.55;2.60;;;6.70;52.40;;;;;;5056916;28;20128;-38
2021/11/10 11:11:25;;;;;;;3.33;2.15;;;6.70;51.90;;;;;;5058025;28;20044;-38
2021/11/10 11:13:56;;;;;;;4.18;2.50;;;6.80;51.80;;;;;;5055543;28;20139;-38
2021/11/10 11:16:28;;;;;;;3.20;2.38;;;6.80;51.70;;;;;;5058227;28;20279;-39
2021/11/10 11:19:13;;;;;;;3.45;2.05;;;6.80;51.60;;;;;;5057928;28;20031;-39
2021/11/10 11:21:51;;;;;;;9.77;3.42;;;6.80;51.70;;;;;;5057437;28;20478;-39
2021/11/10 11:24:37;;;;;;;4.57;3.05;;;6.90;52.00;;;;;;5057335;28;20033;-38
2021/11/10 11:27:26;;;;;;;4.88;2.65;;;6.90;51.60;;;;;;5057500;28;20041;-39
2021/11/10 11:30:05;;;;;;;6.05;2.70;;;6.90;51.60;;;;;;5057939;28;20309;-39
2021/11/10 11:32:34;;;;;;;5.70;2.60;;;6.90;51.80;;;;;;5057500;28;20410;-39
2021/11/10 11:35:29;;;;;;;5.03;2.70;;;7.00;51.60;;;;;;5057398;28;20032;-39
2021/11/10 11:37:59;;;;;;;5.10;2.40;;;7.00;51.10;;;;;;5056636;28;20067;-39
2021/11/10 11:40:27;;;;;;;4.30;2.38;;;7.00;50.70;;;;;;5057537;28;20037;-38
2021/11/10 11:42:55;;;;;;;4.88;2.63;;;6.90;50.50;;;;;;5056654;28;20378;-39
2021/11/10 11:45:27;;;;;;;6.32;2.25;;;6.90;50.30;;;;;;5058089;28;20037;-38
2021/11/10 11:47:54;;;;;;;3.42;2.00;;;6.90;50.70;;;;;;5057141;28;20446;-39
2021/11/10 11:50:21;;;;;;;3.53;2.40;;;6.90;50.00;;;;;;5057469;28;20025;-39
2021/11/10 11:52:50;;;;;;;3.92;1.98;;;6.80;50.10;;;;;;5056963;28;20059;-38
2021/11/10 11:55:28;;;;;;;5.50;2.90;;;6.80;49.70;;;;;;5057721;28;20083;-40
2021/11/10 11:58:06;;;;;;;6.85;2.53;;;6.80;49.60;;;;;;5057019;28;20094;-41
2021/11/10 12:00:55;;;;;;;3.95;2.28;;;6.80;49.80;;;;;;5057492;28;20037;-40
2021/11/10 12:03:27;;;;;;;3.53;1.63;;;6.90;49.30;;;;;;5055873;28;20032;-38
2021/11/10 12:06:24;;;;;;;3.22;1.77;;;6.90;48.50;;;;;;5057429;28;20115;-39
2021/11/10 12:08:58;;;;;;;4.05;2.00;;;7.00;48.10;;;;;;5056102;28;20176;-38
2021/11/10 12:11:41;;;;;;;2.05;1.60;;;7.20;48.30;;;;;;5056862;28;20033;-38
2021/11/10 12:14:17;;;;;;;4.45;2.33;;;7.30;47.50;;;;;;5056880;28;20021;-39
2021/11/10 12:17:08;;;;;;;5.05;1.95;;;7.50;47.00;;;;;;5056946;28;20029;-38
2021/11/10 12:19:40;;;;;;;4.40;1.88;;;7.60;46.30;;;;;;5056984;28;20036;-38
2021/11/10 12:22:18;;;;;;;5.90;2.13;;;7.70;45.80;;;;;;5056469;28;20091;-38
2021/11/10 12:25:13;;;;;;;4.35;2.17;;;7.70;44.90;;;;;;5056831;28;20029;-37
2021/11/10 12:27:39;;;;;;;3.90;2.40;;;7.80;45.40;;;;;;5056083;28;20164;-37
2021/11/10 12:30:15;;;;;;;2.90;2.00;;;7.80;45.30;;;;;;5056988;28;20567;-38
2021/11/10 12:32:44;;;;;;;2.35;2.05;;;7.90;45.10;;;;;;5056615;28;20087;-38
2021/11/10 12:35:38;;;;;;;3.08;1.60;;;7.90;45.00;;;;;;5056939;28;20104;-38
2021/11/10 12:38:23;;;;;;;4.50;2.22;;;7.90;44.60;;;;;;5055826;28;20049;-38
2021/11/10 12:41:02;;;;;;;2.72;1.77;;;8.00;44.70;;;;;;5056133;28;20040;-39
2021/11/10 12:43:40;;;;;;;3.53;1.98;;;8.00;44.50;;;;;;5056206;28;20120;-38
2021/11/10 12:46:17;;;;;;;2.67;1.58;;;8.00;44.30;;;;;;5056562;28;20087;-38
2021/11/10 12:48:45;;;;;;;5.60;1.83;;;8.00;44.20;;;;;;5056047;28;20028;-37
2021/11/10 12:51:31;;;;;;;2.08;1.42;;;8.00;43.60;;;;;;5056193;28;20037;-40
2021/11/10 12:54:09;;;;;;;2.03;1.25;;;7.90;43.50;;;;;;5056185;28;20029;-37
2021/11/10 12:56:44;;;;;;;3.08;1.88;;;7.90;43.60;;;;;;5052643;28;20048;-37
2021/11/10 12:59:10;;;;;;;4.60;3.15;;;7.80;43.40;;;;;;5056449;28;20033;-39
2021/11/10 13:01:36;;;;;;;3.83;1.63;;;7.80;43.60;;;;;;5055485;28;20060;-37
2021/11/10 13:04:03;;;;;;;2.35;1.77;;;7.80;43.60;;;;;;5056208;28;20110;-38
2021/11/10 13:06:33;;;;;;;2.35;1.55;;;7.70;43.70;;;;;;5055422;28;20053;-38
2021/11/10 13:09:11;;;;;;;3.58;1.70;;;7.60;43.40;;;;;;5056194;28;20029;-38
2021/11/10 13:11:40;;;;;;;2.42;1.65;;;7.60;43.40;;;;;;5055191;28;20045;-38
2021/11/10 13:14:17;;;;;;;2.58;1.60;;;7.50;44.20;;;;;;5056276;28;20108;-39
2021/11/10 13:17:00;;;;;;;1.90;1.45;;;7.50;43.60;;;;;;5055101;28;20033;-39
2021/11/10 13:19:46;;;;;;;3.22;1.60;;;7.50;43.50;;;;;;5055879;28;20036;-39
2021/11/10 13:22:42;;;;;;;2.15;1.50;;;7.40;43.00;;;;;;5055387;28;20040;-34
2021/11/10 13:25:27;;;;;;;7.55;1.77;;;7.40;42.70;;;;;;5054787;28;20045;-38
2021/11/10 13:27:56;;;;;;;4.25;2.28;;;7.40;42.70;;;;;;5055327;28;20033;-38
2021/11/10 13:30:50;;;;;;;3.67;2.17;;;7.30;42.70;;;;;;5055533;28;20033;-40
2021/11/10 13:33:42;;;;;;;3.88;2.50;;;7.30;42.50;;;;;;5055597;28;20041;-39
2021/11/10 13:36:14;;;;;;;4.93;1.90;;;7.30;43.40;;;;;;5055230;28;20039;-37
2021/11/10 13:38:48;;;;;;;4.65;1.83;;;7.30;43.30;;;;;;5055640;28;20017;-38
2021/11/10 13:41:25;;;;;;;6.32;2.20;;;7.30;43.70;;;;;;5054968;28;20051;-39
2021/11/10 13:43:54;;;;;;;4.22;2.10;;;7.30;43.90;;;;;;5055745;28;20064;-38
2021/11/10 13:46:25;;;;;;;3.10;1.98;;;7.30;44.00;;;;;;5054632;28;20053;-38
2021/11/10 13:48:58;;;;;;;8.35;3.58;;;7.30;43.80;;;;;;5055280;28;20029;-38
2021/11/10 13:51:24;;;;;;;5.82;2.65;;;7.30;43.90;;;;;;5054621;28;20035;-39
2021/11/10 13:54:04;;;;;;;6.25;2.72;;;7.30;44.20;;;;;;5054040;28;20033;-38
2021/11/10 13:56:49;;;;;;;6.75;3.55;;;7.20;44.50;;;;;;5054631;28;20033;-38
2021/11/10 13:59:18;;;;;;;4.75;2.35;;;7.20;45.00;;;;;;5054818;28;20041;-38
2021/11/10 14:01:50;;;;;;;11.80;2.42;;;7.10;45.30;;;;;;5054312;28;20064;-40
2021/11/10 14:04:21;;;;;;;6.80;2.40;;;7.10;45.30;;;;;;5055343;28;20037;-39
2021/11/10 14:07:07;;;;;;;3.95;2.00;;;7.00;45.40;;;;;;5054818;28;20135;-39
2021/11/10 14:09:55;;;;;;;52.40;7.38;;;6.90;45.50;;;;;;5055376;28;20040;-39
2021/11/10 14:12:25;;;;;;;120.93;19.75;;;6.80;45.50;;;;;;5055110;28;20040;-39
2021/11/10 14:14:59;;;;;;;75.78;14.73;;;6.70;45.60;;;;;;5055160;28;20405;-38
2021/11/10 14:17:27;;;;;;;95.55;14.77;;;6.70;45.90;;;;;;5054879;28;20325;-38
2021/11/10 14:20:01;;;;;;;85.38;12.25;;;6.60;46.20;;;;;;5055392;28;20075;-38
2021/11/10 14:22:29;;;;;;;23.40;5.18;;;6.50;46.30;;;;;;5054728;28;20446;-38
2021/11/10 14:24:55;;;;;;;20.02;5.10;;;6.50;46.30;;;;;;5055243;28;20041;-37
2021/11/10 14:27:27;;;;;;;75.97;12.35;;;6.30;46.40;;;;;;5054842;28;20035;-37
2021/11/10 14:30:04;;;;;;;56.65;10.25;;;6.30;46.70;;;;;;5055428;28;20353;-37
2021/11/10 14:32:35;;;;;;;69.70;11.93;;;6.20;47.10;;;;;;5054902;28;20045;-38
2021/11/10 14:35:03;;;;;;;58.50;11.05;;;6.10;47.30;;;;;;5054548;28;20057;-38
2021/11/10 14:37:29;;;;;;;80.70;18.40;;;6.00;47.50;;;;;;5054626;28;20112;-38
2021/11/10 14:39:55;;;;;;;74.53;17.45;;;5.90;47.70;;;;;;5055025;28;20125;-38
2021/11/10 14:42:35;;;;;;;73.25;14.85;;;5.80;48.00;;;;;;5054297;28;20432;-38
2021/11/10 14:45:18;;;;;;;72.57;13.73;;;5.70;48.30;;;;;;5054944;28;20044;-38
2021/11/10 14:48:02;;;;;;;74.40;23.48;;;5.60;48.70;;;;;;5054255;28;20040;-38
2021/11/10 14:50:30;;;;;;;53.55;12.68;;;5.50;48.90;;;;;;5054493;28;20068;-38
2021/11/10 14:53:09;;;;;;;233.35;29.55;;;5.50;49.30;;;;;;5054230;28;20033;-38
2021/11/10 14:55:35;;;;;;;52.92;15.10;;;5.40;49.60;;;;;;5054700;28;20033;-38
2021/11/10 14:58:18;;;;;;;65.88;15.75;;;5.30;49.70;;;;;;5054436;28;20372;-38
2021/11/10 15:00:45;;;;;;;66.35;14.23;;;5.20;49.90;;;;;;5054584;28;20037;-38
2021/11/10 15:04:04;;;;;;;49.05;12.10;;;5.10;50.10;;;;;;5054115;28;20062;-38
2021/11/10 15:06:37;;;;;;;56.92;13.75;;;5.00;50.20;;;;;;5051851;28;20063;-38
2021/11/10 15:09:09;;;;;;;52.13;13.50;;;4.90;50.50;;;;;;5054813;28;20033;-45
2021/11/10 15:11:50;;;;;;;62.10;11.73;;;4.80;50.70;;;;;;5054434;28;20037;-39
2021/11/10 15:14:42;;;;;;;41.67;9.07;;;4.80;51.00;;;;;;5057303;28;20021;-38
2021/11/10 15:17:17;;;;;;;62.35;14.75;;;4.70;51.20;;;;;;5056825;28;20037;-38
2021/11/10 15:19:44;;;;;;;54.42;15.18;;;4.60;51.30;;;;;;5058459;28;20029;-39
2021/11/10 15:22:18;;;;;;;63.28;17.52;;;4.50;51.20;;;;;;5057852;28;20428;-39
2021/11/10 15:24:43;;;;;;;342.75;138.95;;;4.40;51.40;;;;;;5058292;28;20290;-38
2021/11/10 15:27:10;;;;;;;142.60;52.33;;;4.40;51.40;;;;;;5058267;28;20047;-38
2021/11/10 15:29:37;;;;;;;81.07;24.50;;;4.30;51.40;;;;;;5058208;28;20059;-38
2021/11/10 15:32:03;;;;;;;64.50;23.70;;;4.30;51.70;;;;;;5057530;28;20098;-39
2021/11/10 15:34:30;;;;;;;142.52;47.50;;;4.30;51.80;;;;;;5057880;28;20025;-39
2021/11/10 15:36:57;;;;;;;64.35;18.20;;;4.20;51.90;;;;;;5058171;28;20040;-38
2021/11/10 15:39:24;;;;;;;65.35;20.33;;;4.10;52.00;;;;;;5057779;28;20052;-38
2021/11/10 15:41:49;;;;;;;38.15;11.32;;;4.10;52.20;;;;;;5057243;28;20057;-39
2021/11/10 15:44:15;;;;;;;44.75;13.18;;;4.00;52.30;;;;;;5058195;28;20043;-39
2021/11/10 15:46:42;;;;;;;27.17;11.55;;;4.00;52.50;;;;;;5057272;28;20325;-39
2021/11/10 15:49:08;;;;;;;37.38;13.65;;;4.00;52.70;;;;;;5056457;28;20041;-38
2021/11/10 15:51:34;;;;;;;27.48;9.90;;;3.90;52.70;;;;;;5057419;28;20037;-39
2021/11/10 15:54:00;;;;;;;29.42;9.50;;;3.90;52.80;;;;;;5056653;28;20075;-38
2021/11/10 15:56:27;;;;;;;46.20;10.52;;;3.90;53.00;;;;;;5057205;28;20036;-39
2021/11/10 15:58:52;;;;;;;25.08;10.38;;;3.80;53.10;;;;;;5057476;28;20039;-38
2021/11/10 16:01:19;;;;;;;90.20;27.30;;;3.80;53.10;;;;;;5056822;28;20128;-39
2021/11/10 16:03:46;;;;;;;56.60;19.13;;;3.80;53.10;;;;;;5057795;28;20473;-39
2021/11/10 16:06:12;;;;;;;96.70;25.98;;;3.80;53.20;;;;;;5057009;28;20036;-37
2021/11/10 16:08:39;;;;;;;114.63;37.28;;;3.70;53.20;;;;;;5057009;28;20476;-38
2021/11/10 16:11:09;;;;;;;92.00;27.08;;;3.70;53.40;;;;;;5057189;28;20324;-37
2021/11/10 16:13:35;;;;;;;116.85;28.92;;;3.70;53.50;;;;;;5057221;28;20082;-38
2021/11/10 16:16:02;;;;;;;73.35;26.50;;;3.80;53.60;;;;;;5056979;28;20036;-38
2021/11/10 16:18:27;;;;;;;68.20;23.67;;;3.70;53.50;;;;;;5057478;28;20402;-38
2021/11/10 16:20:55;;;;;;;38.92;12.43;;;3.70;53.60;;;;;;5057268;28;20044;-38
2021/11/10 16:23:22;;;;;;;40.38;13.05;;;3.70;53.70;;;;;;5056673;28;20048;-38
2021/11/10 16:25:49;;;;;;;38.75;12.75;;;3.70;53.80;;;;;;5056977;28;20036;-39
2021/11/10 16:33:11;;;;;;;44.42;19.77;;;3.60;53.90;;;;;;5056702;28;20431;-39
2021/11/10 16:35:38;;;;;;;65.18;20.77;;;3.50;54.00;;;;;;5056830;28;20025;-39
2021/11/10 16:38:04;;;;;;;54.33;20.73;;;3.50;54.10;;;;;;5056941;28;20033;-39
2021/11/10 16:40:31;;;;;;;51.45;21.25;;;3.50;54.10;;;;;;5056904;28;20119;-38
2021/11/10 16:42:57;;;;;;;101.95;44.13;;;3.50;54.10;;;;;;5056357;28;20059;-38
2021/11/10 16:45:23;;;;;;;99.85;43.08;;;3.50;54.20;;;;;;5057219;28;20036;-37
2021/11/10 16:47:48;;;;;;;88.18;36.67;;;3.50;54.10;;;;;;5056600;28;20048;-37
2021/11/10 16:50:14;;;;;;;201.93;83.97;;;3.40;54.10;;;;;;5057084;28;20035;-37
2021/11/10 16:52:40;;;;;;;129.65;55.80;;;3.40;54.10;;;;;;5056616;28;20025;-37
2021/11/10 16:55:07;;;;;;;116.25;49.85;;;3.40;54.10;;;;;;5056709;28;20033;-37
2021/11/10 16:57:41;;;;;;;161.82;60.83;;;3.40;54.20;;;;;;5056249;28;20029;-39
2021/11/10 17:00:09;;;;;;;157.77;58.45;;;3.40;54.30;;;;;;5056779;28;20041;-38
2021/11/10 17:02:35;;;;;;;152.73;57.75;;;3.40;54.30;;;;;;5056055;28;20465;-37
2021/11/10 17:05:00;;;;;;;154.52;63.53;;;3.30;54.20;;;;;;5056706;28;20105;-37
2021/11/10 17:07:26;;;;;;;136.18;55.05;;;3.40;54.40;;;;;;5055980;28;20322;-37
2021/11/10 17:09:52;;;;;;;110.45;46.55;;;3.40;54.60;;;;;;5056334;28;20032;-38
2021/11/10 17:12:18;;;;;;;99.13;42.75;;;3.30;54.60;;;;;;5055945;28;20033;-38
2021/11/10 17:14:44;;;;;;;113.93;42.55;;;3.30;54.70;;;;;;5056297;28;20120;-38
2021/11/10 17:17:10;;;;;;;125.45;46.35;;;3.30;54.80;;;;;;5056255;28;20065;-37
2021/11/10 17:19:36;;;;;;;109.25;42.42;;;3.30;54.80;;;;;;5056426;28;20028;-37
2021/11/10 17:22:02;;;;;;;92.78;37.78;;;3.30;54.90;;;;;;5055917;28;20120;-37
2021/11/10 17:24:28;;;;;;;83.63;35.20;;;3.30;54.90;;;;;;5056348;28;20048;-37
2021/11/10 17:26:55;;;;;;;89.75;36.25;;;3.30;55.10;;;;;;5055928;28;20033;-38
2021/11/10 17:29:20;;;;;;;79.53;36.67;;;3.30;55.10;;;;;;5056346;28;20043;-37
2021/11/10 17:31:46;;;;;;;81.18;31.40;;;3.30;55.20;;;;;;5055437;28;20032;-37
2021/11/10 17:34:12;;;;;;;105.35;40.38;;;3.20;55.30;;;;;;5056295;28;20025;-38
2021/11/10 17:36:38;;;;;;;104.70;41.45;;;3.20;55.30;;;;;;5054895;28;20033;-38
2021/11/10 17:39:04;;;;;;;79.03;35.78;;;3.20;55.40;;;;;;5055996;28;20039;-38
2021/11/10 17:41:30;;;;;;;80.30;35.80;;;3.20;55.50;;;;;;5055279;28;20080;-37
2021/11/10 17:43:56;;;;;;;80.75;36.38;;;3.20;55.50;;;;;;5055946;28;20065;-39
2021/11/10 17:46:22;;;;;;;103.07;41.22;;;3.20;55.60;;;;;;5055320;28;20097;-38
2021/11/10 17:48:49;;;;;;;96.50;38.75;;;3.20;55.60;;;;;;5056190;28;20112;-39
2021/11/10 17:51:15;;;;;;;85.25;35.58;;;3.20;55.70;;;;;;5055385;28;20083;-38
2021/11/10 17:53:41;;;;;;;93.07;36.60;;;3.20;55.70;;;;;;5055724;28;20036;-39
2021/11/10 17:56:06;;;;;;;82.30;34.20;;;3.20;55.70;;;;;;5055451;28;20259;-38
2021/11/10 17:58:33;;;;;;;88.78;36.58;;;3.20;55.70;;;;;;5055533;28;20029;-38
2021/11/10 18:00:59;;;;;;;103.13;38.17;;;3.20;55.80;;;;;;5055718;28;20075;-38
2021/11/10 18:03:24;;;;;;;99.13;41.65;;;3.30;55.90;;;;;;5055595;28;20025;-38
2021/11/10 18:05:50;;;;;;;81.72;39.33;;;3.30;55.90;;;;;;5055349;28;20489;-38
2021/11/10 18:08:17;;;;;;;110.10;44.20;;;3.30;55.90;;;;;;5055074;28;20036;-39
2021/11/10 18:10:43;;;;;;;93.97;41.15;;;3.30;55.90;;;;;;5055183;28;20471;-37
2021/11/10 18:13:09;;;;;;;114.55;47.58;;;3.30;56.00;;;;;;5055047;28;20021;-38
2021/11/10 18:15:35;;;;;;;157.70;62.25;;;3.30;56.00;;;;;;5055346;28;20090;-38
2021/11/10 18:18:01;;;;;;;141.25;57.78;;;3.30;56.00;;;;;;5055463;28;20092;-38
2021/11/10 18:20:26;;;;;;;122.22;52.75;;;3.30;56.10;;;;;;5055812;28;20128;-38
2021/11/10 18:22:52;;;;;;;107.40;44.22;;;3.40;56.20;;;;;;5055259;28;20120;-38
2021/11/10 18:25:22;;;;;;;86.97;36.13;;;3.30;56.10;;;;;;5055871;28;20057;-37
2021/11/10 18:27:48;;;;;;;98.40;41.35;;;3.40;56.00;;;;;;5055027;28;20067;-38
2021/11/10 18:30:14;;;;;;;82.53;38.85;;;3.40;55.90;;;;;;5055585;28;20446;-38
2021/11/10 18:32:41;;;;;;;89.28;38.95;;;3.40;55.70;;;;;;5055366;28;20379;-38
2021/11/10 18:35:08;;;;;;;80.97;35.35;;;3.50;55.80;;;;;;5055773;28;20406;-38
2021/11/10 18:37:34;;;;;;;72.53;31.42;;;3.50;55.80;;;;;;5055348;28;20037;-39
2021/11/10 18:40:03;;;;;;;58.80;24.45;;;3.50;55.50;;;;;;5055430;28;20032;-38
2021/11/10 18:42:29;;;;;;;51.70;24.33;;;3.60;55.30;;;;;;5054766;28;20111;-38
2021/11/10 18:44:55;;;;;;;50.67;21.50;;;3.60;55.10;;;;;;5055599;28;20045;-38
2021/11/10 18:47:20;;;;;;;44.33;18.80;;;3.60;54.80;;;;;;5057163;28;20330;-38
2021/11/10 18:49:46;;;;;;;43.78;20.48;;;3.70;54.40;;;;;;5059423;28;20037;-39
2021/11/10 18:52:13;;;;;;;41.35;19.73;;;3.70;54.00;;;;;;5058896;28;20079;-38
2021/11/10 18:54:39;;;;;;;55.00;22.75;;;3.70;53.70;;;;;;5059183;28;20128;-38
2021/11/10 18:57:05;;;;;;;43.47;19.15;;;3.70;53.40;;;;;;5058753;28;20108;-37
2021/11/10 18:59:33;;;;;;;40.67;17.95;;;3.80;53.10;;;;;;5058946;28;20029;-38
2021/11/10 19:02:05;;;;;;;52.92;23.55;;;3.80;53.10;;;;;;5058585;28;20087;-38
2021/11/10 19:05:00;;;;;;;56.28;24.95;;;3.80;53.00;;;;;;5059218;28;20361;-37
2021/11/10 19:10:18;;;;;;;52.35;22.17;;;3.80;53.20;;;;;;5057878;28;20043;-37
2021/11/10 19:23:18;;;;;;;40.60;19.23;;;3.90;52.40;;;;;;5058257;28;20025;-37
2021/11/10 19:25:44;;;;;;;45.55;21.15;;;3.90;52.20;;;;;;5058186;28;20044;-39
2021/11/10 19:28:10;;;;;;;42.13;19.27;;;3.90;52.30;;;;;;5058083;28;20033;-37
2021/11/10 19:30:37;;;;;;;36.53;16.58;;;3.90;52.40;;;;;;5058463;28;20044;-37
2021/11/10 19:33:05;;;;;;;38.60;15.68;;;3.90;52.50;;;;;;5058182;28;20386;-38
2021/11/10 19:35:30;;;;;;;33.47;14.45;;;3.90;52.40;;;;;;5058642;28;20059;-38
2021/11/10 19:37:56;;;;;;;37.15;15.90;;;3.90;52.40;;;;;;5057897;28;20025;-38
2021/11/10 19:40:23;;;;;;;28.65;14.05;;;4.00;52.50;;;;;;5058453;28;20405;-38
2021/11/10 19:42:49;;;;;;;28.25;13.88;;;4.00;52.50;;;;;;5057577;28;20064;-38